Time;durP1;ratioP1;P1;durP2;ratioP2;P2;SDS_P1;SDS_P2;PMS_P1;PMS_P2;Temp;Humidity;BMP_temperature;BMP_pressure;BME280_temperature;BME280_humidity;BME280_pressure;Samples;Min_cycle;Max_cycle;Signal;HPM_P1;HPM_P2
2023/10/22 00:00:53;;;;;;;;;;;;;;;19.97;61.25;99488.69;5075309;28;19916;-76
2023/10/22 00:03:19;;;;;;;;;;;;;;;19.90;62.22;99493.41;5075288;28;19970;-77
2023/10/22 00:05:44;;;;;;;;;;;;;;;19.90;61.48;99488.03;5075178;28;19970;-76
2023/10/22 00:08:09;;;;;;;;;;;;;;;19.86;62.27;99500.28;5075161;28;20004;-76
2023/10/22 00:10:34;;;;;;;;;;;;;;;19.87;62.07;99507.28;5075490;28;19981;-77
2023/10/22 00:13:00;;;;;;;;;;;;;;;19.86;61.43;99505.66;5073826;28;19919;-77
2023/10/22 00:15:25;;;;;;;;;;;;;;;19.82;62.53;99502.63;5073894;28;19913;-77
2023/10/22 00:17:51;;;;;;;;;;;;;;;19.84;62.41;99507.75;5075326;28;19920;-76
2023/10/22 00:20:17;;;;;;;;;;;;;;;19.86;61.60;99503.78;5074982;28;19989;-76
2023/10/22 00:22:42;;;;;;;;;;;;;;;19.84;61.95;99497.84;5074937;28;19939;-76
2023/10/22 00:25:07;;;;;;;;;;;;;;;19.84;61.70;99497.03;5074776;28;20377;-76
2023/10/22 00:27:33;;;;;;;;;;;;;;;19.84;62.70;99495.16;5074729;28;19911;-76
2023/10/22 00:29:58;;;;;;;;;;;;;;;19.84;62.36;99491.69;5074777;28;19917;-76
2023/10/22 00:32:24;;;;;;;;;;;;;;;19.86;62.18;99489.56;5074831;28;19919;-76
2023/10/22 00:34:49;;;;;;;;;;;;;;;19.89;61.70;99492.59;5073604;28;20414;-76
2023/10/22 00:37:14;;;;;;;;;;;;;;;19.91;62.29;99506.56;5074856;28;19913;-77
2023/10/22 00:39:41;;;;;;;;;;;;;;;19.93;62.46;99507.13;5074742;28;19970;-76
2023/10/22 00:42:07;;;;;;;;;;;;;;;19.99;61.40;99502.69;5074616;28;19970;-77
2023/10/22 00:44:32;;;;;;;;;;;;;;;19.99;61.66;99503.50;5074673;28;19916;-77
2023/10/22 00:46:58;;;;;;;;;;;;;;;19.98;61.93;99504.53;5073413;28;19920;-77
2023/10/22 00:49:23;;;;;;;;;;;;;;;19.96;62.14;99501.28;5074582;28;19913;-77
2023/10/22 00:51:50;;;;;;;;;;;;;;;19.98;62.33;99506.41;5074398;28;20396;-77
2023/10/22 00:54:16;;;;;;;;;;;;;;;20.00;62.62;99504.31;5073485;28;20301;-77
2023/10/22 00:56:42;;;;;;;;;;;;;;;20.04;61.71;99515.34;5074201;28;19920;-76
2023/10/22 00:59:08;;;;;;;;;;;;;;;20.05;61.67;99516.97;5074319;28;19912;-77
2023/10/22 01:01:33;;;;;;;;;;;;;;;20.03;62.00;99514.53;5074206;28;19917;-77
2023/10/22 01:03:58;;;;;;;;;;;;;;;20.03;63.14;99516.41;5073934;28;19917;-77
2023/10/22 01:06:24;;;;;;;;;;;;;;;20.05;62.81;99523.16;5074154;28;19967;-76
2023/10/22 01:08:50;;;;;;;;;;;;;;;20.08;62.41;99524.56;5074187;28;19916;-76
2023/10/22 01:11:15;;;;;;;;;;;;;;;20.09;62.62;99536.91;5072952;28;19912;-77
2023/10/22 01:13:40;;;;;;;;;;;;;;;20.10;62.42;99522.47;5074121;28;19956;-74
2023/10/22 01:16:09;;;;;;;;;;;;;;;20.14;61.66;99523.63;5073863;28;19912;-77
2023/10/22 01:18:35;;;;;;;;;;;;;;;20.11;62.43;99522.22;5074050;28;19913;-77
2023/10/22 01:21:00;;;;;;;;;;;;;;;20.11;62.06;99510.69;5072618;28;20004;-76
2023/10/22 01:23:27;;;;;;;;;;;;;;;20.08;62.75;99505.81;5072634;28;19913;-76
2023/10/22 01:25:52;;;;;;;;;;;;;;;20.11;62.43;99497.28;5074003;28;20001;-76
2023/10/22 01:28:18;;;;;;;;;;;;;;;20.10;62.99;99495.66;5074001;28;20358;-77
2023/10/22 01:30:43;;;;;;;;;;;;;;;20.10;63.13;99504.50;5073886;28;19951;-77
2023/10/22 01:33:08;;;;;;;;;;;;;;;20.14;62.80;99497.63;5073867;28;19916;-77
2023/10/22 01:35:34;;;;;;;;;;;;;;;20.13;63.45;99501.34;5072357;28;20302;-77
2023/10/22 01:37:59;;;;;;;;;;;;;;;20.14;63.10;99499.47;5073599;28;19982;-76
2023/10/22 01:40:24;;;;;;;;;;;;;;;20.15;62.96;99503.78;5073479;28;19956;-77
2023/10/22 01:42:51;;;;;;;;;;;;;;;20.15;62.86;99495.75;5073356;28;20303;-75
2023/10/22 01:45:16;;;;;;;;;;;;;;;20.17;62.50;99489.09;5072081;28;19912;-77
2023/10/22 01:47:42;;;;;;;;;;;;;;;20.19;62.64;99502.25;5072050;28;19945;-75
2023/10/22 01:50:07;;;;;;;;;;;;;;;20.19;62.72;99521.03;5073343;28;19920;-76
2023/10/22 01:52:32;;;;;;;;;;;;;;;20.18;62.77;99511.34;5073507;28;19916;-75
2023/10/22 01:54:58;;;;;;;;;;;;;;;20.18;62.73;99498.75;5073204;28;19912;-77
2023/10/22 01:57:24;;;;;;;;;;;;;;;20.17;62.87;99521.25;5073222;28;19927;-74
2023/10/22 01:59:49;;;;;;;;;;;;;;;20.19;62.63;99516.47;5071808;28;20369;-74
2023/10/22 02:02:15;;;;;;;;;;;;;;;20.17;62.84;99523.13;5072906;28;20058;-75
2023/10/22 02:04:41;;;;;;;;;;;;;;;20.15;63.06;99509.97;5073058;28;20004;-75
2023/10/22 02:07:06;;;;;;;;;;;;;;;20.15;63.02;99515.31;5072690;28;19940;-76
2023/10/22 02:09:31;;;;;;;;;;;;;;;20.16;62.86;99511.59;5071867;28;19912;-74
2023/10/22 02:11:56;;;;;;;;;;;;;;;20.13;62.87;99501.34;5071742;28;19912;-75
2023/10/22 02:14:22;;;;;;;;;;;;;;;20.11;63.41;99518.72;5072926;28;19913;-75
2023/10/22 02:16:47;;;;;;;;;;;;;;;20.12;62.82;99515.00;5071696;28;19912;-75
2023/10/22 02:19:12;;;;;;;;;;;;;;;20.08;63.61;99512.00;5072752;28;19913;-75
2023/10/22 02:21:37;;;;;;;;;;;;;;;20.08;63.41;99522.72;5072674;28;19946;-75
2023/10/22 02:24:03;;;;;;;;;;;;;;;20.07;64.07;99523.75;5072748;28;19912;-75
2023/10/22 02:26:28;;;;;;;;;;;;;;;20.06;63.50;99518.59;5072875;28;19912;-75
2023/10/22 02:28:53;;;;;;;;;;;;;;;20.06;63.88;99518.59;5072738;28;20057;-77
2023/10/22 02:31:19;;;;;;;;;;;;;;;20.05;63.27;99517.78;5072594;28;19913;-77
2023/10/22 02:33:44;;;;;;;;;;;;;;;20.04;63.92;99518.03;5072481;28;19913;-76
2023/10/22 02:36:10;;;;;;;;;;;;;;;20.04;63.83;99520.72;5072381;28;19919;-76
2023/10/22 02:38:36;;;;;;;;;;;;;;;20.04;63.99;99523.41;5072363;28;20428;-76
2023/10/22 02:41:02;;;;;;;;;;;;;;;20.05;64.05;99528.50;5071033;28;19981;-77
2023/10/22 02:43:27;;;;;;;;;;;;;;;20.05;63.82;99519.66;5072663;28;19956;-77
2023/10/22 02:45:53;;;;;;;;;;;;;;;20.05;63.84;99507.06;5071157;28;20392;-76
2023/10/22 02:48:19;;;;;;;;;;;;;;;20.05;64.22;99495.53;5072527;28;19924;-76
2023/10/22 02:50:44;;;;;;;;;;;;;;;20.04;63.46;99500.09;5070972;28;19912;-77
2023/10/22 02:53:10;;;;;;;;;;;;;;;20.03;63.82;99505.69;5072228;28;19944;-77
2023/10/22 02:55:35;;;;;;;;;;;;;;;20.04;63.68;99520.72;5071997;28;19913;-76
2023/10/22 02:58:01;;;;;;;;;;;;;;;20.04;64.09;99515.34;5072192;28;19912;-75
2023/10/22 03:00:26;;;;;;;;;;;;;;;20.05;63.72;99466.88;5072148;28;20003;-76
2023/10/22 03:02:52;;;;;;;;;;;;;;;20.04;64.43;99443.81;5072062;28;19970;-75
2023/10/22 03:05:17;;;;;;;;;;;;;;;20.04;64.56;99484.00;5071741;28;19920;-77
2023/10/22 03:07:42;;;;;;;;;;;;;;;20.04;63.87;99483.19;5071915;28;19912;-75
2023/10/22 03:10:09;;;;;;;;;;;;;;;20.10;61.92;99482.25;5071931;28;19962;-75
2023/10/22 03:12:34;;;;;;;;;;;;;;;20.09;62.62;99491.34;5071948;28;19927;-75
2023/10/22 03:15:00;;;;;;;;;;;;;;;20.07;63.61;99502.31;5071972;28;19912;-75
2023/10/22 03:17:25;;;;;;;;;;;;;;;20.11;63.79;99516.06;5071230;28;19912;-77
2023/10/22 03:19:50;;;;;;;;;;;;;;;20.12;63.58;99515.81;5071844;28;20414;-76
2023/10/22 03:22:15;;;;;;;;;;;;;;;20.15;63.32;99511.84;5071794;28;19923;-76
2023/10/22 03:24:41;;;;;;;;;;;;;;;20.14;63.55;99516.38;5070573;28;19920;-75
2023/10/22 03:27:06;;;;;;;;;;;;;;;20.15;63.57;99506.47;5070632;28;19912;-75
2023/10/22 03:29:32;;;;;;;;;;;;;;;20.15;63.41;99519.88;5071790;28;19952;-76
2023/10/22 03:31:57;;;;;;;;;;;;;;;20.15;63.01;99526.06;5071820;28;20339;-75
2023/10/22 03:34:23;;;;;;;;;;;;;;;20.14;63.47;99516.38;5071775;28;19912;-75
2023/10/22 03:36:48;;;;;;;;;;;;;;;20.16;62.30;99511.59;5070490;28;20424;-75
2023/10/22 03:39:14;;;;;;;;;;;;;;;20.14;63.17;99507.53;5071799;28;19912;-75
2023/10/22 03:41:39;;;;;;;;;;;;;;;20.14;63.33;99505.66;5071713;28;19920;-77
2023/10/22 03:44:05;;;;;;;;;;;;;;;20.14;63.47;99511.03;5071706;28;19946;-76
2023/10/22 03:46:30;;;;;;;;;;;;;;;20.16;62.99;99514.28;5071690;28;19952;-76
2023/10/22 03:48:57;;;;;;;;;;;;;;;20.17;62.80;99513.22;5071658;28;19912;-76
2023/10/22 03:51:22;;;;;;;;;;;;;;;20.16;62.76;99519.63;5070278;28;19912;-77
2023/10/22 03:53:48;;;;;;;;;;;;;;;20.18;62.21;99522.06;5071647;28;19966;-78
2023/10/22 03:56:14;;;;;;;;;;;;;;;20.17;63.04;99526.63;5071437;28;19965;-75
2023/10/22 03:58:39;;;;;;;;;;;;;;;20.17;63.17;99523.13;5070105;28;20417;-76
2023/10/22 04:01:04;;;;;;;;;;;;;;;20.16;62.13;99529.53;5071603;28;19917;-77
2023/10/22 04:03:30;;;;;;;;;;;;;;;20.15;62.74;99528.72;5071715;28;19913;-76
2023/10/22 04:05:56;;;;;;;;;;;;;;;20.17;62.67;99520.44;5071393;28;19962;-76
2023/10/22 04:08:22;;;;;;;;;;;;;;;20.18;62.63;99517.53;5071440;28;19919;-76
2023/10/22 04:10:47;;;;;;;;;;;;;;;20.21;62.52;99513.56;5071409;28;19912;-77
2023/10/22 04:13:13;;;;;;;;;;;;;;;20.22;62.20;99515.19;5071470;28;19912;-76
2023/10/22 04:15:39;;;;;;;;;;;;;;;20.21;62.03;99508.19;5071234;28;19965;-76
2023/10/22 04:18:04;;;;;;;;;;;;;;;20.18;62.69;99512.16;5071355;28;19996;-76
2023/10/22 04:20:35;;;;;;;;;;;;;;;20.18;62.73;99514.03;5070014;28;20018;-77
2023/10/22 04:23:01;;;;;;;;;;;;;;;20.17;62.55;99521.25;5071442;28;19916;-76
2023/10/22 04:25:28;;;;;;;;;;;;;;;20.16;62.70;99519.63;5071291;28;19912;-76
2023/10/22 04:27:53;;;;;;;;;;;;;;;20.17;62.63;99529.31;5071158;28;19919;-76
2023/10/22 04:30:18;;;;;;;;;;;;;;;20.14;63.21;99524.44;5074170;28;19999;-77
2023/10/22 04:32:44;;;;;;;;;;;;;;;20.14;62.93;99523.63;5075462;28;20475;-76
2023/10/22 04:35:09;;;;;;;;;;;;;;;20.11;63.77;99518.72;5075342;28;20307;-78
2023/10/22 04:37:34;;;;;;;;;;;;;;;20.15;62.79;99525.25;5074938;28;19919;-77
2023/10/22 04:39:59;;;;;;;;;;;;;;;20.11;63.81;99527.59;5074618;28;19942;-77
2023/10/22 04:42:26;;;;;;;;;;;;;;;20.14;63.33;99519.06;5074893;28;20440;-76
2023/10/22 04:44:51;;;;;;;;;;;;;;;20.15;63.24;99526.06;5074853;28;19943;-76
2023/10/22 04:47:16;;;;;;;;;;;;;;;20.18;63.35;99524.75;5074607;28;19960;-77
2023/10/22 04:49:44;;;;;;;;;;;;;;;20.15;63.66;99533.28;5074653;28;20335;-76
2023/10/22 04:52:10;;;;;;;;;;;;;;;20.13;63.93;99522.81;5073227;28;19912;-76
2023/10/22 04:54:35;;;;;;;;;;;;;;;20.11;63.95;99522.22;5074508;28;19965;-77
2023/10/22 04:57:02;;;;;;;;;;;;;;;20.12;63.97;99523.84;5073283;28;19999;-76
2023/10/22 04:59:27;;;;;;;;;;;;;;;20.11;64.26;99524.09;5074468;28;19919;-76
2023/10/22 05:01:53;;;;;;;;;;;;;;;20.11;63.97;99516.88;5074625;28;19917;-75
2023/10/22 05:04:18;;;;;;;;;;;;;;;20.10;64.83;99519.78;5072810;28;20045;-75
2023/10/22 05:06:43;;;;;;;;;;;;;;;20.12;63.91;99517.69;5074037;28;19913;-75
2023/10/22 05:09:10;;;;;;;;;;;;;;;20.12;63.32;99517.69;5072836;28;20009;-78
2023/10/22 05:11:35;;;;;;;;;;;;;;;20.09;64.66;99521.66;5074308;28;19912;-76
2023/10/22 05:14:00;;;;;;;;;;;;;;;20.08;64.72;99517.34;5074446;28;19966;-76
2023/10/22 05:16:26;;;;;;;;;;;;;;;20.10;64.38;99525.97;5074399;28;19916;-76
2023/10/22 05:18:52;;;;;;;;;;;;;;;20.11;64.72;99537.50;5074322;28;19962;-76
2023/10/22 05:21:17;;;;;;;;;;;;;;;20.12;64.91;99547.16;5074071;28;19920;-76
2023/10/22 05:23:43;;;;;;;;;;;;;;;20.13;64.86;99544.25;5073971;28;20380;-74
2023/10/22 05:26:09;;;;;;;;;;;;;;;20.14;65.17;99545.88;5074233;28;19987;-78
2023/10/22 05:28:34;;;;;;;;;;;;;;;20.15;64.82;99544.00;5074143;28;19912;-76
2023/10/22 05:30:59;;;;;;;;;;;;;;;20.15;65.13;99547.50;5074022;28;19935;-76
2023/10/22 05:33:25;;;;;;;;;;;;;;;20.18;63.75;99554.25;5074101;28;20359;-77
2023/10/22 05:35:50;;;;;;;;;;;;;;;20.16;64.42;99562.53;5073754;28;19999;-76
2023/10/22 05:38:15;;;;;;;;;;;;;;;20.18;64.76;99556.94;5073616;28;19913;-76
2023/10/22 05:40:40;;;;;;;;;;;;;;;20.19;64.74;99566.59;5072983;28;19916;-76
2023/10/22 05:43:06;;;;;;;;;;;;;;;20.19;64.63;99572.78;5073784;28;19912;-76
2023/10/22 05:45:32;;;;;;;;;;;;;;;20.20;64.66;99587.00;5072866;28;20376;-76
2023/10/22 05:47:57;;;;;;;;;;;;;;;20.22;64.96;99587.56;5073439;28;19917;-76
2023/10/22 05:50:22;;;;;;;;;;;;;;;20.24;64.49;99598.88;5073548;28;19986;-76
2023/10/22 05:52:50;;;;;;;;;;;;;;;20.24;64.70;99599.69;5072263;28;19912;-76
2023/10/22 05:55:15;;;;;;;;;;;;;;;20.26;65.14;99592.22;5073485;28;19919;-76
2023/10/22 05:57:41;;;;;;;;;;;;;;;20.24;64.93;99586.28;5073273;28;20464;-76
2023/10/22 06:00:07;;;;;;;;;;;;;;;20.25;64.68;99597.81;5073220;28;19912;-76
2023/10/22 06:02:33;;;;;;;;;;;;;;;20.24;64.84;99591.63;5073514;28;19912;-76
2023/10/22 06:04:59;;;;;;;;;;;;;;;20.27;64.83;99590.34;5071952;28;19920;-76
2023/10/22 06:07:24;;;;;;;;;;;;;;;20.29;64.58;99590.91;5073287;28;20339;-75
2023/10/22 06:09:50;;;;;;;;;;;;;;;20.31;64.71;99586.94;5073135;28;20019;-76
2023/10/22 06:12:15;;;;;;;;;;;;;;;20.34;64.47;99579.47;5071742;28;19919;-76
2023/10/22 06:14:40;;;;;;;;;;;;;;;20.36;64.77;99586.22;5072993;28;19982;-76
2023/10/22 06:17:06;;;;;;;;;;;;;;;20.36;64.42;99577.34;5073364;28;19913;-76
2023/10/22 06:19:31;;;;;;;;;;;;;;;20.39;64.41;99569.69;5074821;28;19912;-77
2023/10/22 06:21:56;;;;;;;;;;;;;;;20.44;64.26;99574.31;5076369;28;19971;-77
2023/10/22 06:24:21;;;;;;;;;;;;;;;20.47;64.31;99581.88;5072952;28;19916;-76
2023/10/22 06:26:47;;;;;;;;;;;;;;;20.48;63.71;99584.31;5072995;28;19912;-76
2023/10/22 06:29:12;;;;;;;;;;;;;;;20.51;63.83;99588.38;5071365;28;20286;-76
2023/10/22 06:31:37;;;;;;;;;;;;;;;20.52;63.63;99581.97;5072616;28;19948;-76
2023/10/22 06:34:02;;;;;;;;;;;;;;;20.52;63.60;99582.78;5072713;28;19916;-76
2023/10/22 06:36:28;;;;;;;;;;;;;;;20.54;63.81;99577.16;5072469;28;19966;-76
2023/10/22 06:38:53;;;;;;;;;;;;;;;20.57;62.73;99557.91;5072375;28;19935;-76
2023/10/22 06:41:21;;;;;;;;;;;;;;;20.61;62.81;99556.38;5072319;28;20015;-76
2023/10/22 06:43:47;;;;;;;;;;;;;;;20.66;63.26;99550.28;5072469;28;19912;-76
2023/10/22 06:46:13;;;;;;;;;;;;;;;20.70;63.40;99549.53;5072351;28;19919;-76
2023/10/22 06:48:39;;;;;;;;;;;;;;;20.73;63.23;99573.19;5070976;28;20003;-76
2023/10/22 06:51:09;;;;;;;;;;;;;;;20.79;62.39;99574.09;5072288;28;19913;-76
2023/10/22 06:53:34;;;;;;;;;;;;;;;20.83;62.51;99570.72;5072328;28;19912;-76
2023/10/22 06:56:01;;;;;;;;;;;;;;;20.83;62.48;99562.66;5072233;28;19999;-76
2023/10/22 06:58:27;;;;;;;;;;;;;;;20.88;62.31;99565.44;5072281;28;19913;-77
2023/10/22 07:00:54;;;;;;;;;;;;;;;20.92;61.68;99563.06;5070604;28;19920;-76
2023/10/22 07:03:19;;;;;;;;;;;;;;;20.93;61.90;99557.47;5071862;28;19916;-76
2023/10/22 07:05:44;;;;;;;;;;;;;;;20.93;62.26;99554.78;5071710;28;20069;-77
2023/10/22 07:08:10;;;;;;;;;;;;;;;20.98;61.73;99561.28;5071917;28;19927;-76
2023/10/22 07:10:35;;;;;;;;;;;;;;;20.99;62.39;99554.84;5072280;28;20440;-76
2023/10/22 07:13:01;;;;;;;;;;;;;;;21.06;62.12;99550.94;5072040;28;19919;-77
2023/10/22 07:15:26;;;;;;;;;;;;;;;21.13;61.98;99551.56;5070749;28;19954;-76
2023/10/22 07:17:51;;;;;;;;;;;;;;;21.18;61.72;99554.34;5071797;28;19917;-76
2023/10/22 07:20:17;;;;;;;;;;;;;;;21.24;61.74;99552.56;5070579;28;19913;-76
2023/10/22 07:22:42;;;;;;;;;;;;;;;21.31;61.06;99555.88;5072037;28;19916;-76
2023/10/22 07:25:08;;;;;;;;;;;;;;;21.32;61.55;99560.19;5072079;28;19912;-75
2023/10/22 07:27:33;;;;;;;;;;;;;;;21.35;61.52;99545.44;5071722;28;20377;-76
2023/10/22 07:29:58;;;;;;;;;;;;;;;21.40;61.21;99549.03;5071889;28;19913;-77
2023/10/22 07:32:23;;;;;;;;;;;;;;;21.44;61.54;99552.03;5071558;28;19908;-76
2023/10/22 07:34:49;;;;;;;;;;;;;;;21.47;61.56;99552.34;5071741;28;20408;-76
2023/10/22 07:37:14;;;;;;;;;;;;;;;21.54;61.62;99560.22;5072010;28;19966;-77
2023/10/22 07:39:39;;;;;;;;;;;;;;;21.57;61.75;99549.00;5072209;28;19913;-76
2023/10/22 07:42:05;;;;;;;;;;;;;;;21.58;61.16;99547.94;5071836;28;19967;-74
2023/10/22 07:44:30;;;;;;;;;;;;;;;21.61;60.54;99543.94;5071610;28;19920;-76
2023/10/22 07:46:55;;;;;;;;;;;;;;;21.68;60.08;99547.25;5071789;28;19919;-76
2023/10/22 07:49:21;;;;;;;;;;;;;;;21.67;59.95;99554.50;5070346;28;19929;-76
2023/10/22 07:51:46;;;;;;;;;;;;;;;21.71;59.71;99550.25;5071620;28;19919;-77
2023/10/22 07:54:12;;;;;;;;;;;;;;;21.75;59.65;99554.06;5071744;28;20385;-75
2023/10/22 07:56:37;;;;;;;;;;;;;;;21.79;59.33;99559.75;5072574;28;19913;-75
2023/10/22 07:59:03;;;;;;;;;;;;;;;21.84;59.28;99557.13;5072726;28;19912;-75
2023/10/22 08:01:28;;;;;;;;;;;;;;;21.90;58.93;99566.88;5072013;28;20376;-75
2023/10/22 08:03:53;;;;;;;;;;;;;;;21.97;58.72;99555.91;5071977;28;19912;-75
2023/10/22 08:06:19;;;;;;;;;;;;;;;22.00;58.63;99558.09;5075333;28;19932;-75
2023/10/22 08:08:44;;;;;;;;;;;;;;;22.04;58.65;99561.94;5074058;28;19970;-77
2023/10/22 08:11:09;;;;;;;;;;;;;;;22.09;58.53;99559.31;5075511;28;19947;-75
2023/10/22 08:13:34;;;;;;;;;;;;;;;22.10;58.60;99552.88;5074103;28;19962;-76
2023/10/22 08:16:03;;;;;;;;;;;;;;;22.13;58.38;99547.78;5075235;28;19913;-77
2023/10/22 08:18:28;;;;;;;;;;;;;;;22.19;58.31;99556.72;5073891;28;19912;-76
2023/10/22 08:20:54;;;;;;;;;;;;;;;22.23;58.24;99560.53;5073745;28;19986;-75
2023/10/22 08:23:19;;;;;;;;;;;;;;;22.28;58.09;99557.06;5075080;28;19947;-76
2023/10/22 08:25:53;;;;;;;;;;;;;;;22.34;58.24;99564.16;5074923;28;20388;-76
2023/10/22 08:28:19;;;;;;;;;;;;;;;22.39;57.88;99556.13;5074883;28;19978;-76
2023/10/22 08:30:48;;;;;;;;;;;;;;;22.43;58.30;99562.63;5074827;28;19912;-75
2023/10/22 08:33:14;;;;;;;;;;;;;;;22.46;58.25;99559.44;5074854;28;20457;-75
2023/10/22 08:35:39;;;;;;;;;;;;;;;22.51;57.33;99551.41;5073490;28;20002;-76
2023/10/22 08:38:04;;;;;;;;;;;;;;;22.56;57.13;99556.00;5074878;28;20312;-77
2023/10/22 08:40:30;;;;;;;;;;;;;;;22.63;56.88;99559.31;5074580;28;19923;-75
2023/10/22 08:42:56;;;;;;;;;;;;;;;22.68;56.64;99559.34;5074805;28;19913;-77
2023/10/22 08:45:22;;;;;;;;;;;;;;;22.74;56.39;99551.06;5074808;28;19920;-77
2023/10/22 08:47:47;;;;;;;;;;;;;;;22.82;56.34;99553.31;5074758;28;19912;-76
2023/10/22 08:50:15;;;;;;;;;;;;;;;22.92;56.48;99557.13;5074558;28;19991;-76
2023/10/22 08:52:40;;;;;;;;;;;;;;;23.03;55.75;99564.22;5074520;28;19912;-76
2023/10/22 08:55:07;;;;;;;;;;;;;;;23.18;54.93;99568.94;5073106;28;19919;-77
2023/10/22 08:57:32;;;;;;;;;;;;;;;23.33;55.14;99572.53;5074482;28;19913;-76
2023/10/22 08:59:58;;;;;;;;;;;;;;;23.48;55.35;99579.06;5073134;28;19920;-77
2023/10/22 09:02:28;;;;;;;;;;;;;;;23.61;55.11;99573.22;5074505;28;19917;-75
2023/10/22 09:04:53;;;;;;;;;;;;;;;23.69;54.28;99573.53;5074492;28;19958;-75
2023/10/22 09:07:19;;;;;;;;;;;;;;;23.73;54.47;99569.25;5074354;28;19912;-77
2023/10/22 09:09:44;;;;;;;;;;;;;;;23.80;53.92;99566.34;5074246;28;19913;-75
2023/10/22 09:12:10;;;;;;;;;;;;;;;23.92;53.48;99564.22;5074197;28;19924;-75
2023/10/22 09:14:36;;;;;;;;;;;;;;;24.01;53.70;99565.31;5074299;28;20007;-75
2023/10/22 09:17:15;;;;;;;;;;;;;;;24.12;53.41;99557.25;5071635;28;20374;-77
2023/10/22 09:19:40;;;;;;;;;;;;;;;24.19;52.67;99547.81;5074204;28;19995;-76
2023/10/22 09:22:06;;;;;;;;;;;;;;;24.28;53.34;99548.94;5073871;28;20011;-74
2023/10/22 09:24:46;;;;;;;;;;;;;;;24.34;52.54;99547.06;5073919;28;19969;-74
2023/10/22 09:27:20;;;;;;;;;;;;;;;24.43;52.52;99539.25;5074107;28;19919;-76
2023/10/22 09:29:47;;;;;;;;;;;;;;;24.52;51.75;99535.75;5074152;28;19919;-76
2023/10/22 09:32:12;;;;;;;;;;;;;;;24.65;50.31;99532.53;5073926;28;20307;-76
2023/10/22 09:34:38;;;;;;;;;;;;;;;24.68;49.57;99532.00;5074041;28;19992;-78
2023/10/22 09:37:03;;;;;;;;;;;;;;;24.74;48.89;99529.28;5073744;28;19922;-77
2023/10/22 09:39:55;;;;;;;;;;;;;;;24.78;49.38;99528.47;5073493;28;19912;-76
2023/10/22 09:42:21;;;;;;;;;;;;;;;24.86;49.15;99519.03;5070126;28;20340;-77
2023/10/22 09:44:46;;;;;;;;;;;;;;;24.93;48.20;99531.16;5073538;28;19913;-76
2023/10/22 09:47:17;;;;;;;;;;;;;;;25.00;49.11;99528.22;5073534;28;19952;-76
2023/10/22 09:49:44;;;;;;;;;;;;;;;25.08;48.80;99519.56;5072222;28;19912;-76
2023/10/22 09:52:12;;;;;;;;;;;;;;;25.18;48.44;99508.72;5073684;28;19966;-75
2023/10/22 09:54:39;;;;;;;;;;;;;;;25.30;47.97;99505.75;5072118;28;19924;-77
2023/10/22 09:57:14;;;;;;;;;;;;;;;25.38;48.23;99502.47;5073456;28;19920;-76
2023/10/22 09:59:43;;;;;;;;;;;;;;;25.46;48.13;99501.88;5071997;28;20356;-77
2023/10/22 10:02:13;;;;;;;;;;;;;;;25.47;47.49;99486.47;5073428;28;19946;-76
2023/10/22 10:04:40;;;;;;;;;;;;;;;25.54;47.27;99484.28;5072998;28;19928;-77
2023/10/22 10:07:06;;;;;;;;;;;;;;;25.53;46.99;99472.66;5072988;28;19912;-77
2023/10/22 10:09:32;;;;;;;;;;;;;;;25.55;46.93;99481.31;5072980;28;19919;-75
2023/10/22 10:11:59;;;;;;;;;;;;;;;25.59;46.44;99476.16;5072989;28;19999;-77
2023/10/22 10:14:36;;;;;;;;;;;;;;;25.64;47.25;99468.00;5072967;28;20434;-75
2023/10/22 10:17:02;;;;;;;;;;;;;;;25.62;46.88;99470.19;5072805;28;19912;-77
2023/10/22 10:19:27;;;;;;;;;;;;;;;25.59;46.52;99466.13;5072808;28;19912;-77
2023/10/22 10:21:53;;;;;;;;;;;;;;;25.54;46.76;99466.16;5073062;28;19917;-77
2023/10/22 10:24:22;;;;;;;;;;;;;;;25.51;46.58;99455.91;5071641;28;20467;-76
2023/10/22 10:26:50;;;;;;;;;;;;;;;25.53;46.54;99456.44;5071156;28;19919;-76
2023/10/22 10:29:16;;;;;;;;;;;;;;;25.59;46.69;99447.22;5072728;28;20001;-78
2023/10/22 10:31:45;;;;;;;;;;;;;;;25.68;46.79;99439.34;5072467;28;19913;-76
2023/10/22 10:34:19;;;;;;;;;;;;;;;25.74;46.70;99435.53;5072588;28;20376;-75
2023/10/22 10:36:45;;;;;;;;;;;;;;;25.81;47.05;99438.72;5072645;28;19978;-77
2023/10/22 10:39:29;;;;;;;;;;;;;;;25.86;46.64;99436.00;5071146;28;20369;-75
2023/10/22 10:41:54;;;;;;;;;;;;;;;25.88;46.55;99433.81;5072315;28;19990;-77
2023/10/22 10:44:19;;;;;;;;;;;;;;;25.92;46.45;99428.66;5072228;28;19913;-78
2023/10/22 10:46:44;;;;;;;;;;;;;;;25.97;46.41;99426.72;5072611;28;19943;-77
2023/10/22 10:49:10;;;;;;;;;;;;;;;26.03;46.35;99429.41;5072435;28;19921;-77
2023/10/22 10:51:35;;;;;;;;;;;;;;;26.10;46.43;99432.59;5072369;28;19912;-77
2023/10/22 10:54:00;;;;;;;;;;;;;;;26.13;46.03;99426.63;5072147;28;20483;-77
2023/10/22 10:56:47;;;;;;;;;;;;;;;26.13;45.83;99424.72;5072280;28;20385;-76
2023/10/22 10:59:25;;;;;;;;;;;;;;;26.06;44.92;99426.13;5072648;28;19913;-77
2023/10/22 11:02:16;;;;;;;;;;;;;;;26.02;45.58;99427.78;5072060;28;19974;-76
2023/10/22 11:04:45;;;;;;;;;;;;;;;26.00;44.86;99427.22;5069699;28;19920;-75
2023/10/22 11:07:11;;;;;;;;;;;;;;;25.93;45.28;99422.94;5068855;28;19916;-75
2023/10/22 11:09:37;;;;;;;;;;;;;;;25.90;45.92;99422.72;5072048;28;19915;-77
2023/10/22 11:12:04;;;;;;;;;;;;;;;25.84;45.59;99413.00;5071822;28;19912;-74
2023/10/22 11:14:33;;;;;;;;;;;;;;;25.77;45.09;99412.53;5071944;28;19916;-76
2023/10/22 11:16:58;;;;;;;;;;;;;;;25.70;45.55;99418.25;5072214;28;20286;-77
2023/10/22 11:19:24;;;;;;;;;;;;;;;25.65;45.75;99415.53;5071833;28;19927;-76
2023/10/22 11:21:51;;;;;;;;;;;;;;;25.60;45.75;99399.34;5071988;28;19974;-76
2023/10/22 11:24:16;;;;;;;;;;;;;;;25.56;46.14;99406.41;5071781;28;19927;-75
2023/10/22 11:26:42;;;;;;;;;;;;;;;25.50;46.24;99404.81;5071902;28;20320;-75
2023/10/22 11:29:08;;;;;;;;;;;;;;;25.43;46.04;99402.44;5066722;28;19909;-75
2023/10/22 11:31:33;;;;;;;;;;;;;;;25.36;46.12;99401.94;5051631;28;19944;-77
2023/10/22 11:34:12;;;;;;;;;;;;;;;25.36;46.57;99393.00;5051994;28;19917;-77
2023/10/22 11:36:38;;;;;;;;;;;;;;;25.27;46.56;99399.00;5067057;28;20376;-77
2023/10/22 11:39:13;;;;;;;;;;;;;;;25.24;46.54;99401.41;5050860;28;19952;-76
2023/10/22 11:41:38;;;;;;;;;;;;;;;25.21;46.49;99394.66;5051607;28;19948;-77
2023/10/22 11:44:04;;;;;;;;;;;;;;;25.23;46.71;99402.50;5051668;28;19963;-77
2023/10/22 11:46:40;;;;;;;;;;;;;;;25.24;46.63;99393.31;5050335;28;19912;-77
2023/10/22 11:49:05;;;;;;;;;;;;;;;25.25;46.66;99386.81;5051442;28;20379;-77
2023/10/22 11:51:40;;;;;;;;;;;;;;;25.28;46.69;99389.81;5051435;28;19913;-76
2023/10/22 11:54:06;;;;;;;;;;;;;;;25.34;46.41;99393.28;5051504;28;19913;-76
2023/10/22 11:56:31;;;;;;;;;;;;;;;25.36;47.04;99388.41;5051393;28;19919;-78
2023/10/22 11:58:56;;;;;;;;;;;;;;;25.39;46.82;99385.16;5051382;28;20389;-78
2023/10/22 12:01:22;;;;;;;;;;;;;;;25.43;46.56;99388.91;5051325;28;19921;-77
2023/10/22 12:03:47;;;;;;;;;;;;;;;25.41;46.44;99388.38;5049929;28;19913;-77
2023/10/22 12:06:12;;;;;;;;;;;;;;;25.41;46.47;99385.69;5051543;28;19917;-76
2023/10/22 12:08:38;;;;;;;;;;;;;;;25.41;46.40;99382.97;5051456;28;20378;-76
2023/10/22 12:11:03;;;;;;;;;;;;;;;25.38;46.50;99382.72;5051469;28;19913;-78
2023/10/22 12:13:28;;;;;;;;;;;;;;;25.34;46.64;99372.47;5051345;28;19912;-76
2023/10/22 12:15:53;;;;;;;;;;;;;;;25.38;46.47;99374.63;5051403;28;20370;-75
2023/10/22 12:18:19;;;;;;;;;;;;;;;25.43;46.63;99372.69;5051175;28;19920;-76
2023/10/22 12:20:44;;;;;;;;;;;;;;;25.51;46.26;99371.28;5049861;28;19924;-75
2023/10/22 12:23:11;;;;;;;;;;;;;;;25.57;46.44;99372.88;5051255;28;19912;-77
2023/10/22 12:25:36;;;;;;;;;;;;;;;25.58;46.22;99372.59;5051240;28;19912;-78
2023/10/22 12:28:01;;;;;;;;;;;;;;;25.57;46.54;99370.97;5051238;28;19971;-77
2023/10/22 12:30:27;;;;;;;;;;;;;;;25.57;46.61;99370.16;5051286;28;19916;-77
2023/10/22 12:32:52;;;;;;;;;;;;;;;25.56;46.30;99380.19;5051230;28;20382;-76
2023/10/22 12:35:17;;;;;;;;;;;;;;;25.61;46.57;99363.13;5051575;28;19920;-77
2023/10/22 12:37:43;;;;;;;;;;;;;;;25.67;46.61;99367.44;5051387;28;20360;-77
2023/10/22 12:40:09;;;;;;;;;;;;;;;25.72;46.52;99370.09;5051043;28;19916;-76
2023/10/22 12:42:36;;;;;;;;;;;;;;;25.75;46.51;99356.00;5051067;28;19983;-76